Time;durP1;ratioP1;P1;durP2;ratioP2;P2;SDS_P1;SDS_P2;PMS_P1;PMS_P2;Temp;Humidity;BMP_temperature;BMP_pressure;BME280_temperature;BME280_humidity;BME280_pressure;Samples;Min_cycle;Max_cycle;Signal;HPM_P1;HPM_P2
2023/10/16 00:00:42;;;;;;;0.40;0.20;;;20.20;67.00;;;;;;5083182;28;20028;-40
2023/10/16 00:03:09;;;;;;;0.40;0.20;;;20.20;67.00;;;;;;5084954;28;20033;-40
2023/10/16 00:05:38;;;;;;;0.35;0.28;;;20.20;66.80;;;;;;5096710;28;20441;-39
2023/10/16 00:08:05;;;;;;;0.73;0.35;;;20.20;66.70;;;;;;5083543;28;20032;-40
2023/10/16 00:10:35;;;;;;;0.52;0.32;;;20.20;66.70;;;;;;5097089;28;20028;-40
2023/10/16 00:13:04;;;;;;;1.00;0.32;;;20.20;66.70;;;;;;5096164;28;20052;-39
2023/10/16 00:15:40;;;;;;;0.55;0.30;;;20.20;66.60;;;;;;5095356;28;20024;-40
2023/10/16 00:18:18;;;;;;;0.85;0.30;;;20.20;66.50;;;;;;5101111;28;20044;-39
2023/10/16 00:20:45;;;;;;;0.50;0.30;;;20.10;66.50;;;;;;5105219;28;20028;-40
2023/10/16 00:23:11;;;;;;;0.30;0.30;;;20.20;66.50;;;;;;5103463;28;20051;-39
2023/10/16 00:25:41;;;;;;;0.35;0.30;;;20.20;67.00;;;;;;5105468;28;20024;-39
2023/10/16 00:28:08;;;;;;;0.40;0.20;;;20.20;67.00;;;;;;5096364;28;20036;-39
2023/10/16 00:30:38;;;;;;;0.82;0.30;;;20.30;66.90;;;;;;5096894;28;20034;-39
2023/10/16 00:33:10;;;;;;;0.40;0.30;;;20.20;66.70;;;;;;5096861;28;20119;-39
2023/10/16 00:35:39;;;;;;;0.50;0.20;;;20.20;66.70;;;;;;5110616;28;20039;-40
2023/10/16 00:38:19;;;;;;;1.08;0.30;;;20.20;66.50;;;;;;5097060;28;20036;-40
2023/10/16 00:43:40;;;;;;;1.00;0.40;;;20.10;66.20;;;;;;5090410;28;20039;-39
2023/10/16 00:46:10;;;;;;;0.40;0.20;;;20.10;66.10;;;;;;5096679;28;20033;-39
2023/10/16 00:48:38;;;;;;;0.30;0.30;;;20.10;66.50;;;;;;5089783;28;20025;-41
2023/10/16 00:51:09;;;;;;;0.25;0.20;;;20.20;66.60;;;;;;5092519;28;20028;-39
2023/10/16 00:53:38;;;;;;;0.75;0.40;;;20.20;66.40;;;;;;5096769;28;20055;-39
2023/10/16 00:56:13;;;;;;;0.77;0.40;;;20.20;66.30;;;;;;5097005;28;20058;-40
2023/10/16 00:58:40;;;;;;;0.68;0.30;;;20.20;66.10;;;;;;5092063;28;20087;-39
2023/10/16 01:01:28;;;;;;;0.20;0.20;;;20.10;65.90;;;;;;5088823;28;20092;-39
2023/10/16 01:03:57;;;;;;;0.50;0.30;;;20.10;65.90;;;;;;5078741;28;20222;-39
2023/10/16 01:06:41;;;;;;;0.50;0.30;;;20.10;65.60;;;;;;5088866;28;20040;-39
2023/10/16 01:09:22;;;;;;;0.98;0.30;;;20.10;65.90;;;;;;5078611;28;20036;-39
2023/10/16 01:11:49;;;;;;;0.47;0.30;;;20.20;66.00;;;;;;5082440;28;20028;-39
2023/10/16 01:14:16;;;;;;;;;;;20.20;65.90;;;;;;5082358;28;20476;-39
2023/10/16 01:16:43;;;;;;;0.32;0.20;;;20.20;65.60;;;;;;5082582;28;19912;-39
2023/10/16 01:19:10;;;;;;;0.60;0.32;;;20.20;65.50;;;;;;5082171;28;20067;-39
2023/10/16 01:21:36;;;;;;;0.60;0.35;;;20.10;65.10;;;;;;5082025;28;20151;-40
2023/10/16 01:24:12;;;;;;;0.98;0.38;;;20.10;65.10;;;;;;5064952;28;20038;-40
2023/10/16 01:26:41;;;;;;;0.50;0.30;;;20.10;64.90;;;;;;5076201;28;20032;-39
2023/10/16 01:29:09;;;;;;;0.20;0.20;;;20.00;64.80;;;;;;5082102;28;20044;-40
2023/10/16 01:31:44;;;;;;;0.40;0.30;;;20.10;65.20;;;;;;5082085;28;20088;-40
2023/10/16 01:34:10;;;;;;;0.50;0.30;;;20.10;65.60;;;;;;5081923;28;20033;-40
2023/10/16 01:36:37;;;;;;;0.63;0.30;;;20.20;65.50;;;;;;5088281;28;20032;-40
2023/10/16 01:39:35;;;;;;;0.40;0.22;;;20.20;65.40;;;;;;5080167;28;20032;-40
2023/10/16 01:41:53;;;;;;;1.02;0.30;;;20.20;65.20;;;;;;5093162;28;20060;-40
2023/10/16 01:44:19;;;;;;;0.25;0.25;;;20.10;65.00;;;;;;5103073;28;20031;-39
2023/10/16 01:46:47;;;;;;;0.63;0.30;;;20.10;64.70;;;;;;5096825;28;20115;-40
2023/10/16 01:49:14;;;;;;;0.30;0.30;;;20.00;64.70;;;;;;5090261;28;20071;-40
2023/10/16 01:51:43;;;;;;;0.50;0.40;;;20.00;64.70;;;;;;5096386;28;20024;-39
2023/10/16 01:54:14;;;;;;;0.20;0.20;;;20.10;65.20;;;;;;5087738;28;20041;-40
2023/10/16 01:56:41;;;;;;;0.45;0.30;;;20.20;65.30;;;;;;5085349;28;20024;-40
2023/10/16 01:59:07;;;;;;;0.20;0.20;;;20.20;65.20;;;;;;5094271;28;20044;-40
2023/10/16 02:01:34;;;;;;;1.00;0.30;;;20.20;65.00;;;;;;5100198;28;20100;-42
2023/10/16 02:04:03;;;;;;;;;;;20.10;64.80;;;;;;5093359;28;20048;-40
2023/10/16 02:06:29;;;;;;;0.40;0.32;;;20.10;64.70;;;;;;5103934;28;19923;-40
2023/10/16 02:08:56;;;;;;;0.40;0.30;;;20.10;64.50;;;;;;5085202;28;20647;-39
2023/10/16 02:11:22;;;;;;;0.47;0.22;;;20.00;64.40;;;;;;5094404;28;20060;-40
2023/10/16 02:13:49;;;;;;;0.20;0.20;;;20.00;64.60;;;;;;5095514;28;20035;-39
2023/10/16 02:16:17;;;;;;;0.20;0.20;;;20.10;65.10;;;;;;5102564;28;20032;-40
2023/10/16 02:18:46;;;;;;;0.35;0.30;;;20.10;65.10;;;;;;5102957;28;20044;-39
2023/10/16 02:21:13;;;;;;;0.35;0.30;;;20.20;65.20;;;;;;5102118;28;20069;-40
2023/10/16 02:23:48;;;;;;;0.60;0.40;;;20.10;64.70;;;;;;5102637;28;20102;-40
2023/10/16 02:26:21;;;;;;;0.40;0.40;;;20.10;64.60;;;;;;5094249;28;20057;-40
2023/10/16 02:28:47;;;;;;;0.50;0.30;;;20.10;64.40;;;;;;5091900;28;20025;-40
2023/10/16 02:31:15;;;;;;;0.45;0.35;;;20.10;64.50;;;;;;5099653;28;20522;-39
2023/10/16 02:33:50;;;;;;;0.30;0.30;;;20.00;64.30;;;;;;5088822;28;20040;-40
2023/10/16 02:36:19;;;;;;;0.50;0.30;;;20.10;65.10;;;;;;5105485;28;20024;-40
2023/10/16 02:38:48;;;;;;;0.35;0.30;;;20.20;65.40;;;;;;5094624;28;20055;-39
2023/10/16 02:41:20;;;;;;;0.30;0.30;;;20.20;65.40;;;;;;5092314;28;20059;-39
2023/10/16 02:43:46;;;;;;;0.68;0.30;;;20.10;65.30;;;;;;5091330;28;20046;-40
2023/10/16 02:46:21;;;;;;;0.30;0.30;;;20.10;64.80;;;;;;5099670;28;20028;-40
2023/10/16 02:48:47;;;;;;;0.50;0.30;;;20.10;64.70;;;;;;5095466;28;20088;-40
2023/10/16 02:51:16;;;;;;;1.40;0.30;;;20.10;64.60;;;;;;5094004;28;20396;-40
2023/10/16 02:53:43;;;;;;;0.35;0.30;;;20.00;64.50;;;;;;5101854;28;20096;-39
2023/10/16 02:56:14;;;;;;;0.40;0.30;;;20.00;64.70;;;;;;5101315;28;20810;-40
2023/10/16 02:58:43;;;;;;;0.50;0.40;;;20.10;65.30;;;;;;5101819;28;20058;-39
2023/10/16 03:01:15;;;;;;;0.40;0.30;;;20.10;65.60;;;;;;5100943;28;20087;-39
2023/10/16 03:03:44;;;;;;;0.25;0.25;;;20.10;65.40;;;;;;5088880;28;20541;-39
2023/10/16 03:06:10;;;;;;;0.35;0.25;;;20.10;65.20;;;;;;5106886;28;20023;-39
2023/10/16 03:08:37;;;;;;;0.40;0.38;;;20.10;65.00;;;;;;5101330;28;20035;-40
2023/10/16 03:11:07;;;;;;;0.73;0.30;;;20.10;64.70;;;;;;5094564;28;20127;-40
2023/10/16 03:13:37;;;;;;;0.40;0.30;;;20.00;64.60;;;;;;5084561;28;20036;-39
2023/10/16 03:16:48;;;;;;;0.47;0.30;;;20.00;64.50;;;;;;5084615;28;20031;-39
2023/10/16 03:19:02;;;;;;;0.30;0.30;;;20.00;64.60;;;;;;5083818;28;20043;-39
2023/10/16 03:21:30;;;;;;;0.30;0.28;;;20.10;65.30;;;;;;5082075;28;20016;-39
2023/10/16 03:23:58;;;;;;;0.30;0.30;;;20.10;64.90;;;;;;5083860;28;20693;-40
2023/10/16 03:26:28;;;;;;;0.95;0.30;;;20.10;65.20;;;;;;5093884;28;20082;-39
2023/10/16 03:29:08;;;;;;;0.45;0.40;;;20.10;64.70;;;;;;5100586;28;20059;-39
2023/10/16 03:31:36;;;;;;;0.40;0.30;;;20.10;64.50;;;;;;5088748;28;20122;-43
2023/10/16 03:34:02;;;;;;;0.60;0.25;;;20.00;64.20;;;;;;5094542;28;20044;-40
2023/10/16 03:36:28;;;;;;;0.50;0.23;;;20.00;64.20;;;;;;5103646;28;20047;-40
2023/10/16 03:38:57;;;;;;;0.73;0.40;;;20.00;64.20;;;;;;5091682;28;20032;-40
2023/10/16 03:41:33;;;;;;;0.30;0.20;;;20.10;65.00;;;;;;5099728;28;20052;-39
2023/10/16 03:44:17;;;;;;;0.43;0.30;;;20.10;65.00;;;;;;5081863;28;20021;-39
2023/10/16 03:46:44;;;;;;;0.20;0.20;;;20.10;64.80;;;;;;5087456;28;20056;-40
2023/10/16 03:49:14;;;;;;;0.50;0.30;;;20.10;64.40;;;;;;5100488;28;20109;-39
2023/10/16 03:51:40;;;;;;;1.33;0.30;;;20.10;64.30;;;;;;5097158;28;20518;-40
2023/10/16 03:54:06;;;;;;;0.98;0.40;;;20.00;64.20;;;;;;5083455;28;20086;-40
2023/10/16 03:56:33;;;;;;;0.30;0.30;;;20.00;64.00;;;;;;5090644;28;20054;-39
2023/10/16 03:58:59;;;;;;;0.20;0.20;;;19.90;64.00;;;;;;5083917;28;20089;-40
2023/10/16 04:01:27;;;;;;;0.40;0.30;;;20.00;64.40;;;;;;5088705;28;20032;-40
2023/10/16 04:03:56;;;;;;;0.47;0.30;;;20.00;64.80;;;;;;5090571;28;20056;-40
2023/10/16 04:06:24;;;;;;;0.20;0.20;;;20.10;64.60;;;;;;5088340;28;20023;-40
2023/10/16 04:08:52;;;;;;;0.40;0.30;;;20.10;64.70;;;;;;5083450;28;20681;-40
2023/10/16 04:11:25;;;;;;;0.30;0.30;;;20.10;64.40;;;;;;5084002;28;20036;-39
2023/10/16 04:13:55;;;;;;;0.68;0.40;;;20.00;64.10;;;;;;5098181;28;20042;-39
2023/10/16 04:18:51;;;;;;;0.50;0.30;;;19.90;64.00;;;;;;5086258;28;20032;-40
2023/10/16 04:21:37;;;;;;;0.28;0.28;;;20.00;64.30;;;;;;5091761;28;21249;-40
2023/10/16 04:24:05;;;;;;;0.20;0.20;;;20.00;64.80;;;;;;5083371;28;20484;-39
2023/10/16 04:26:46;;;;;;;0.30;0.30;;;20.10;64.80;;;;;;5083809;28;20029;-40
2023/10/16 04:31:55;;;;;;;0.40;0.30;;;20.00;64.20;;;;;;5083157;28;20080;-40
2023/10/16 04:50:49;;;;;;;0.40;0.30;;;20.10;64.90;;;;;;5099736;28;20034;-39
2023/10/16 04:53:21;;;;;;;0.40;0.30;;;20.10;64.50;;;;;;5089156;28;20041;-39
2023/10/16 06:14:20;;;;;;;0.30;0.30;;;20.00;64.50;;;;;;5086396;28;20035;-40
2023/10/16 06:16:53;;;;;;;0.73;0.50;;;20.00;64.20;;;;;;5097364;28;20099;-40
2023/10/16 06:19:19;;;;;;;0.40;0.40;;;19.90;63.70;;;;;;5091122;28;20883;-39
2023/10/16 06:21:49;;;;;;;0.57;0.50;;;19.90;63.60;;;;;;5102926;28;20028;-39
2023/10/16 06:24:26;;;;;;;1.25;0.50;;;19.90;63.50;;;;;;5086610;28;20033;-40
2023/10/16 06:26:55;;;;;;;1.17;0.60;;;19.90;63.80;;;;;;5098402;28;20023;-40
2023/10/16 06:29:26;;;;;;;0.30;0.30;;;19.90;64.20;;;;;;5094433;28;20025;-39
2023/10/16 06:31:58;;;;;;;0.30;0.30;;;20.00;64.50;;;;;;5095178;28;20032;-39
2023/10/16 06:34:24;;;;;;;0.60;0.50;;;20.00;64.40;;;;;;5093824;28;20040;-38
2023/10/16 06:36:51;;;;;;;1.23;0.50;;;20.00;64.00;;;;;;5102111;28;20028;-39
2023/10/16 06:39:35;;;;;;;0.43;0.38;;;19.90;63.50;;;;;;5095657;28;20039;-39
2023/10/16 06:42:05;;;;;;;0.63;0.38;;;19.90;63.40;;;;;;5085101;28;20396;-39
2023/10/16 06:44:34;;;;;;;0.45;0.45;;;19.90;63.40;;;;;;5087897;28;20028;-39
2023/10/16 06:47:00;;;;;;;0.93;0.63;;;19.90;63.70;;;;;;5101317;28;20032;-39
2023/10/16 06:49:36;;;;;;;0.40;0.40;;;19.90;63.80;;;;;;5101644;28;20046;-39
2023/10/16 06:52:05;;;;;;;0.75;0.50;;;19.90;63.80;;;;;;5087285;28;20054;-38
2023/10/16 06:54:32;;;;;;;1.10;0.47;;;19.90;63.70;;;;;;5094964;28;20069;-39
2023/10/16 06:57:10;;;;;;;1.15;0.50;;;19.90;63.10;;;;;;5088362;28;20052;-39
2023/10/16 06:59:40;;;;;;;0.50;0.50;;;19.90;62.90;;;;;;5083921;28;20038;-40
2023/10/16 07:02:09;;;;;;;0.43;0.40;;;19.80;62.90;;;;;;5085835;28;20693;-39
2023/10/16 07:04:40;;;;;;;0.40;0.40;;;19.80;63.20;;;;;;5103338;28;20035;-38
2023/10/16 07:07:14;;;;;;;0.30;0.30;;;19.90;63.50;;;;;;5097257;28;20024;-38
2023/10/16 07:09:54;;;;;;;0.60;0.50;;;19.90;63.80;;;;;;5084520;28;20028;-39
2023/10/16 07:12:22;;;;;;;0.50;0.40;;;20.00;63.60;;;;;;5094097;28;20048;-39
2023/10/16 07:15:01;;;;;;;1.00;0.60;;;20.00;63.40;;;;;;5090274;28;20016;-39
2023/10/16 07:17:30;;;;;;;0.82;0.43;;;19.90;63.00;;;;;;5100734;28;20031;-39
2023/10/16 07:19:59;;;;;;;0.50;0.40;;;19.90;62.80;;;;;;5099646;28;20024;-39
2023/10/16 07:22:31;;;;;;;0.70;0.50;;;19.80;62.70;;;;;;5097818;28;20028;-39
2023/10/16 07:25:25;;;;;;;0.50;0.50;;;19.80;63.00;;;;;;5091500;28;20024;-39
2023/10/16 07:27:49;;;;;;;0.40;0.40;;;19.90;63.40;;;;;;5085686;28;20119;-38
2023/10/16 07:30:22;;;;;;;0.55;0.40;;;20.00;63.60;;;;;;5092375;28;20032;-40
2023/10/16 07:32:51;;;;;;;1.23;0.43;;;20.00;63.50;;;;;;5102066;28;20065;-40
2023/10/16 07:35:18;;;;;;;0.93;0.40;;;19.90;63.20;;;;;;5093651;28;20507;-39
2023/10/16 07:37:54;;;;;;;0.50;0.50;;;19.90;62.90;;;;;;5096281;28;20078;-39
2023/10/16 07:40:21;;;;;;;0.40;0.40;;;19.80;62.70;;;;;;5092866;28;20084;-39
2023/10/16 07:42:52;;;;;;;0.73;0.37;;;19.80;62.70;;;;;;5096017;28;20036;-39
2023/10/16 07:45:19;;;;;;;0.40;0.40;;;19.90;63.20;;;;;;5091486;28;20028;-39
2023/10/16 07:47:47;;;;;;;0.40;0.40;;;19.90;63.40;;;;;;5100968;28;20421;-39
2023/10/16 07:50:13;;;;;;;0.57;0.40;;;19.90;63.40;;;;;;5097797;28;20039;-39
2023/10/16 07:52:41;;;;;;;0.50;0.50;;;19.90;63.30;;;;;;5101313;28;20055;-39
2023/10/16 07:55:18;;;;;;;0.57;0.50;;;19.90;62.70;;;;;;5093406;28;20033;-39
2023/10/16 07:57:51;;;;;;;0.47;0.47;;;19.80;62.50;;;;;;5095956;28;20028;-39
2023/10/16 08:00:25;;;;;;;0.43;0.43;;;19.80;62.40;;;;;;5100081;28;20035;-40
2023/10/16 08:02:58;;;;;;;0.45;0.40;;;19.80;62.60;;;;;;5101432;28;20035;-39
2023/10/16 08:05:26;;;;;;;0.47;0.43;;;19.80;63.00;;;;;;5097464;28;20043;-39
2023/10/16 08:07:53;;;;;;;0.55;0.55;;;19.90;63.20;;;;;;5090923;28;20084;-39
2023/10/16 08:13:11;;;;;;;0.45;0.43;;;19.90;62.90;;;;;;5094219;28;20013;-39
2023/10/16 08:15:48;;;;;;;0.50;0.40;;;19.90;62.60;;;;;;5083799;28;20052;-39
2023/10/16 08:18:18;;;;;;;0.90;0.50;;;19.80;62.40;;;;;;5097758;28;20036;-39
2023/10/16 08:23:35;;;;;;;0.60;0.35;;;19.80;62.70;;;;;;5093684;28;20439;-38
2023/10/16 08:26:14;;;;;;;0.50;0.38;;;19.90;63.00;;;;;;5093868;28;20024;-40
2023/10/16 08:28:45;;;;;;;0.40;0.40;;;19.90;62.80;;;;;;5094878;28;20032;-39
2023/10/16 08:31:24;;;;;;;0.50;0.50;;;19.90;62.60;;;;;;5094262;28;20035;-39
2023/10/16 08:33:59;;;;;;;0.40;0.40;;;19.90;62.30;;;;;;5105039;28;20031;-39
2023/10/16 08:36:26;;;;;;;0.55;0.55;;;19.80;62.20;;;;;;5103356;28;20636;-39
2023/10/16 08:38:53;;;;;;;;;;;19.80;62.20;;;;;;5104777;28;20070;-39
2023/10/16 08:41:42;;;;;;;0.55;0.40;;;19.80;62.40;;;;;;5103710;28;20342;-39
2023/10/16 08:44:21;;;;;;;0.32;0.32;;;19.90;62.90;;;;;;5103604;28;20036;-39
2023/10/16 08:49:24;;;;;;;0.38;0.38;;;19.90;62.90;;;;;;5103484;28;20024;-39
2023/10/16 08:52:04;;;;;;;0.60;0.40;;;19.80;62.40;;;;;;5091768;28;20029;-39
2023/10/16 08:57:28;;;;;;;0.75;0.43;;;19.80;62.20;;;;;;5086251;28;20107;-39
2023/10/16 08:59:57;;;;;;;0.40;0.40;;;19.80;62.40;;;;;;5101840;28;20665;-40
2023/10/16 09:02:25;;;;;;;0.35;0.35;;;19.80;62.70;;;;;;5096051;28;20035;-39
2023/10/16 09:04:54;;;;;;;0.30;0.30;;;19.90;62.80;;;;;;5094589;28;20032;-40
2023/10/16 09:07:23;;;;;;;0.50;0.50;;;19.90;62.80;;;;;;5088328;28;20036;-40
2023/10/16 09:09:53;;;;;;;0.52;0.50;;;19.90;62.60;;;;;;5090502;28;20028;-39
2023/10/16 09:12:28;;;;;;;0.50;0.50;;;19.80;62.20;;;;;;5085517;28;20043;-39
2023/10/16 09:15:05;;;;;;;1.85;0.50;;;19.80;62.10;;;;;;5086267;28;20032;-40
2023/10/16 09:17:33;;;;;;;0.75;0.40;;;19.80;62.00;;;;;;5078679;28;20028;-39
2023/10/16 09:19:59;;;;;;;0.82;0.38;;;19.70;62.60;;;;;;5085401;28;20016;-40
2023/10/16 09:22:29;;;;;;;0.83;0.50;;;19.80;62.80;;;;;;5093499;28;20028;-39
2023/10/16 09:24:55;;;;;;;0.30;0.30;;;19.90;62.80;;;;;;5093495;28;20051;-39
2023/10/16 09:27:30;;;;;;;0.52;0.45;;;19.90;62.80;;;;;;5085082;28;20047;-38
2023/10/16 09:29:58;;;;;;;0.57;0.30;;;19.90;62.40;;;;;;5095368;28;20111;-39
2023/10/16 09:32:40;;;;;;;1.02;0.65;;;19.80;62.10;;;;;;5087564;28;20047;-39
2023/10/16 09:35:11;;;;;;;0.47;0.30;;;19.80;62.00;;;;;;5108130;28;20038;-39
2023/10/16 09:37:38;;;;;;;0.47;0.40;;;19.70;62.20;;;;;;5085824;28;20103;-39
2023/10/16 09:40:18;;;;;;;0.43;0.40;;;19.80;62.60;;;;;;5085720;28;20040;-40
2023/10/16 09:43:40;;;;;;;1.15;0.50;;;19.90;62.90;;;;;;5084017;28;20032;-40
2023/10/16 09:45:37;;;;;;;1.35;0.40;;;19.90;62.70;;;;;;5091075;28;20036;-39
2023/10/16 09:48:19;;;;;;;2.28;0.60;;;19.90;62.40;;;;;;5096006;28;20559;-40
2023/10/16 09:50:47;;;;;;;0.50;0.50;;;19.80;62.20;;;;;;5094649;28;20046;-43
2023/10/16 09:53:14;;;;;;;0.40;0.40;;;19.70;61.90;;;;;;5085134;28;20105;-39
2023/10/16 09:55:44;;;;;;;0.83;0.50;;;19.70;61.90;;;;;;5098332;28;20024;-39
2023/10/16 09:58:11;;;;;;;0.85;0.50;;;19.70;62.30;;;;;;5101118;28;20072;-39
2023/10/16 10:00:46;;;;;;;0.40;0.40;;;19.80;62.70;;;;;;5084913;28;20092;-39
2023/10/16 10:03:12;;;;;;;0.32;0.30;;;19.90;62.70;;;;;;5091150;28;20599;-39
2023/10/16 10:05:55;;;;;;;0.40;0.40;;;19.90;62.60;;;;;;5074842;28;20194;-39
2023/10/16 10:11:38;;;;;;;0.45;0.40;;;19.80;62.10;;;;;;5086277;28;20043;-40
2023/10/16 10:16:58;;;;;;;0.47;0.35;;;19.80;62.40;;;;;;5083344;28;20032;-40
2023/10/16 10:19:39;;;;;;;0.52;0.40;;;19.80;62.80;;;;;;5095418;28;20032;-40
2023/10/16 10:22:18;;;;;;;0.60;0.47;;;19.90;62.90;;;;;;5094429;28;20047;-40
2023/10/16 10:24:53;;;;;;;0.32;0.32;;;19.90;62.70;;;;;;5091313;28;20025;-40
2023/10/16 10:27:19;;;;;;;0.40;0.32;;;19.80;62.40;;;;;;5086484;28;20036;-40
2023/10/16 10:29:48;;;;;;;0.80;0.47;;;19.80;62.20;;;;;;5090121;28;20028;-40
2023/10/16 10:32:15;;;;;;;0.50;0.40;;;19.70;62.00;;;;;;5101244;28;20036;-40
2023/10/16 10:34:43;;;;;;;0.40;0.40;;;19.70;62.50;;;;;;5102395;28;20024;-39
2023/10/16 10:37:47;;;;;;;0.50;0.50;;;19.80;62.70;;;;;;5094330;28;20084;-39
2023/10/16 10:40:24;;;;;;;0.40;0.38;;;19.90;63.00;;;;;;5094993;28;20036;-39
2023/10/16 10:42:54;;;;;;;0.73;0.40;;;19.90;62.80;;;;;;5102809;28;20032;-39
2023/10/16 10:45:45;;;;;;;0.40;0.40;;;19.90;62.60;;;;;;5102182;28;20024;-39
2023/10/16 10:48:11;;;;;;;0.40;0.40;;;19.90;62.30;;;;;;5095856;28;20378;-39
2023/10/16 10:51:03;;;;;;;0.70;0.40;;;19.80;62.20;;;;;;5091463;28;20020;-40
2023/10/16 10:53:30;;;;;;;0.70;0.40;;;19.70;61.90;;;;;;5052726;28;20101;-39
2023/10/16 10:55:57;;;;;;;0.50;0.40;;;19.80;62.50;;;;;;5060760;28;20033;-39
2023/10/16 10:58:31;;;;;;;0.40;0.32;;;19.80;62.80;;;;;;5043977;28;20043;-40
2023/10/16 11:01:26;;;;;;;0.85;0.45;;;19.90;63.00;;;;;;5060427;28;20516;-40
2023/10/16 11:03:51;;;;;;;0.40;0.40;;;19.90;62.90;;;;;;5059837;28;20074;-40
2023/10/16 11:06:22;;;;;;;0.40;0.40;;;19.80;62.40;;;;;;5066234;28;20076;-39
2023/10/16 11:08:50;;;;;;;0.65;0.50;;;19.80;62.20;;;;;;5060439;28;20452;-40
2023/10/16 11:11:17;;;;;;;0.50;0.50;;;19.70;62.00;;;;;;5043444;28;20138;-39
2023/10/16 11:13:49;;;;;;;0.45;0.40;;;19.70;62.20;;;;;;5060576;28;20059;-39
2023/10/16 11:16:15;;;;;;;0.40;0.40;;;19.80;62.60;;;;;;5060250;28;20033;-39
2023/10/16 11:18:58;;;;;;;0.50;0.30;;;19.90;62.90;;;;;;5043314;28;20033;-39
2023/10/16 11:21:28;;;;;;;0.38;0.38;;;19.90;62.80;;;;;;5044061;28;20033;-40
2023/10/16 11:23:55;;;;;;;0.50;0.40;;;19.90;62.70;;;;;;5044156;28;20095;-40
2023/10/16 11:26:22;;;;;;;;;;;19.80;62.30;;;;;;5044214;28;20116;-40
2023/10/16 11:28:49;;;;;;;0.75;0.50;;;19.80;62.10;;;;;;5060151;28;19912;-40
2023/10/16 11:31:18;;;;;;;0.63;0.40;;;19.80;62.10;;;;;;5086536;28;20046;-40
2023/10/16 11:33:44;;;;;;;0.50;0.40;;;19.80;62.50;;;;;;5097002;28;20059;-40
2023/10/16 11:36:13;;;;;;;0.30;0.30;;;19.80;62.60;;;;;;5106886;28;20028;-40
2023/10/16 11:38:40;;;;;;;0.40;0.40;;;19.90;62.90;;;;;;5096880;28;20111;-40
2023/10/16 11:41:28;;;;;;;1.48;0.30;;;19.90;62.70;;;;;;5096939;28;20055;-41
2023/10/16 11:43:54;;;;;;;0.40;0.40;;;19.80;62.40;;;;;;5092441;28;20028;-41
2023/10/16 11:46:39;;;;;;;0.60;0.60;;;19.80;62.90;;;;;;5094666;28;20035;-40
2023/10/16 11:49:22;;;;;;;0.63;0.30;;;19.80;62.00;;;;;;5086897;28;20032;-40
2023/10/16 11:51:59;;;;;;;0.98;0.43;;;19.70;62.20;;;;;;5089926;28;20047;-39
2023/10/16 11:54:25;;;;;;;0.30;0.30;;;19.80;62.70;;;;;;5094285;28;20028;-40
2023/10/16 11:56:53;;;;;;;0.40;0.40;;;19.90;62.90;;;;;;5100334;28;20109;-40
2023/10/16 11:59:22;;;;;;;0.40;0.40;;;19.90;62.80;;;;;;5084250;28;20303;-39
2023/10/16 12:01:52;;;;;;;0.40;0.40;;;19.80;62.30;;;;;;5094100;28;20020;-39
2023/10/16 12:04:19;;;;;;;1.10;0.50;;;19.80;62.20;;;;;;5102509;28;20036;-42
2023/10/16 12:06:46;;;;;;;;;;;19.70;61.90;;;;;;5102824;28;20020;-39
2023/10/16 12:09:21;;;;;;;0.43;0.40;;;19.70;62.20;;;;;;5095449;28;19912;-40
2023/10/16 12:11:51;;;;;;;0.52;0.40;;;19.70;62.50;;;;;;5099129;28;20846;-39
2023/10/16 12:14:18;;;;;;;0.20;0.20;;;19.80;62.70;;;;;;5087912;28;20064;-42
2023/10/16 12:16:47;;;;;;;0.57;0.40;;;19.80;62.60;;;;;;5098742;28;20033;-40
2023/10/16 12:19:14;;;;;;;0.38;0.38;;;19.80;62.30;;;;;;5102202;28;20020;-40
2023/10/16 12:21:43;;;;;;;0.38;0.38;;;19.80;62.00;;;;;;5104947;28;20765;-40
2023/10/16 12:24:12;;;;;;;0.50;0.50;;;19.70;61.90;;;;;;5103448;28;20069;-40
2023/10/16 12:26:42;;;;;;;0.40;0.40;;;19.70;61.90;;;;;;5099560;28;20028;-39
2023/10/16 12:29:08;;;;;;;0.40;0.40;;;19.70;62.20;;;;;;5104075;28;20039;-40
2023/10/16 12:31:41;;;;;;;0.40;0.40;;;19.70;62.30;;;;;;5097621;28;20036;-40
2023/10/16 12:34:11;;;;;;;0.40;0.40;;;19.80;62.50;;;;;;5104741;28;20028;-39
2023/10/16 12:36:43;;;;;;;0.43;0.43;;;19.80;62.30;;;;;;5104163;28;20037;-40
2023/10/16 12:39:28;;;;;;;0.57;0.57;;;19.80;61.90;;;;;;5097038;28;20450;-39
2023/10/16 12:41:55;;;;;;;0.52;0.50;;;19.80;61.70;;;;;;5098101;28;20049;-39
2023/10/16 12:44:23;;;;;;;0.55;0.50;;;19.70;61.60;;;;;;5097216;28;20032;-41
2023/10/16 12:46:53;;;;;;;0.60;0.40;;;19.70;61.90;;;;;;5097434;28;20062;-40
2023/10/16 12:49:20;;;;;;;0.88;0.50;;;19.70;62.00;;;;;;5100403;28;20036;-38
2023/10/16 12:51:48;;;;;;;0.43;0.43;;;19.80;62.30;;;;;;5105096;28;20032;-39
2023/10/16 12:54:15;;;;;;;0.65;0.40;;;19.80;62.20;;;;;;5096579;28;20041;-40
2023/10/16 12:56:43;;;;;;;0.68;0.40;;;19.80;61.80;;;;;;5100559;28;20033;-40
2023/10/16 12:59:13;;;;;;;0.40;0.30;;;19.80;61.50;;;;;;5094508;28;20038;-40
2023/10/16 13:01:40;;;;;;;0.65;0.40;;;19.70;61.30;;;;;;5098315;28;20055;-40
2023/10/16 13:04:13;;;;;;;;;;;19.70;61.50;;;;;;5097298;28;20088;-40
2023/10/16 13:06:39;;;;;;;0.45;0.45;;;19.70;61.70;;;;;;5091435;28;19918;-40
2023/10/16 13:09:05;;;;;;;0.50;0.40;;;19.80;61.90;;;;;;5096601;28;20028;-40
2023/10/16 13:11:32;;;;;;;0.30;0.30;;;19.80;62.50;;;;;;5096541;28;20028;-40
2023/10/16 13:13:58;;;;;;;0.88;0.40;;;19.80;61.50;;;;;;5103950;28;20028;-40
2023/10/16 13:16:24;;;;;;;0.88;0.47;;;19.70;61.10;;;;;;5100256;28;20036;-40
2023/10/16 13:18:57;;;;;;;0.50;0.40;;;19.70;61.10;;;;;;5097184;28;20042;-39
2023/10/16 13:21:38;;;;;;;0.30;0.30;;;19.70;60.90;;;;;;5092567;28;20031;-39
2023/10/16 13:24:12;;;;;;;0.32;0.30;;;19.70;61.40;;;;;;5100302;28;20043;-38
2023/10/16 13:26:41;;;;;;;0.52;0.43;;;19.80;61.50;;;;;;5103195;28;20443;-39
2023/10/16 13:29:13;;;;;;;0.60;0.50;;;19.80;61.40;;;;;;5102977;28;20028;-39
2023/10/16 13:31:41;;;;;;;1.83;0.50;;;19.70;61.20;;;;;;5104175;28;20039;-40
2023/10/16 13:34:11;;;;;;;0.75;0.50;;;19.70;60.90;;;;;;5095605;28;20042;-40
2023/10/16 13:36:56;;;;;;;0.30;0.30;;;19.70;60.70;;;;;;5098090;28;20115;-39
2023/10/16 13:39:24;;;;;;;0.40;0.40;;;19.60;60.60;;;;;;5095835;28;20080;-39
2023/10/16 13:41:50;;;;;;;0.47;0.40;;;19.70;61.10;;;;;;5103117;28;20048;-39
2023/10/16 13:44:21;;;;;;;0.40;0.38;;;19.80;61.30;;;;;;5095494;28;20032;-39
2023/10/16 13:46:51;;;;;;;0.60;0.50;;;19.80;61.40;;;;;;5103714;28;20028;-39
2023/10/16 13:49:18;;;;;;;0.50;0.40;;;19.80;61.20;;;;;;5098341;28;20054;-39
2023/10/16 13:51:48;;;;;;;0.45;0.40;;;19.70;60.60;;;;;;5097160;28;20040;-39
2023/10/16 13:54:14;;;;;;;0.30;0.30;;;19.70;60.40;;;;;;5087486;28;20044;-39
2023/10/16 13:56:41;;;;;;;0.50;0.47;;;19.70;60.30;;;;;;5096493;28;20099;-39
2023/10/16 13:59:08;;;;;;;0.30;0.30;;;19.70;60.70;;;;;;5095859;28;20047;-39
2023/10/16 14:01:42;;;;;;;1.27;0.35;;;19.80;60.80;;;;;;5099789;28;20028;-40
2023/10/16 14:04:13;;;;;;;0.50;0.40;;;19.80;60.80;;;;;;5101651;28;20036;-39
2023/10/16 14:06:43;;;;;;;0.77;0.40;;;19.80;60.60;;;;;;5097206;28;20020;-39
2023/10/16 14:09:49;;;;;;;0.52;0.40;;;19.80;60.40;;;;;;5102115;28;20032;-39
2023/10/16 14:12:05;;;;;;;1.10;0.50;;;19.80;60.20;;;;;;5098111;28;20070;-40
2023/10/16 14:14:33;;;;;;;0.83;0.37;;;19.70;60.10;;;;;;5088586;28;20087;-39
2023/10/16 14:17:18;;;;;;;;;;;19.70;60.30;;;;;;5096815;28;20058;-40
2023/10/16 14:19:47;;;;;;;0.30;0.30;;;19.80;60.70;;;;;;5099855;28;19911;-40
2023/10/16 14:22:17;;;;;;;0.60;0.43;;;19.90;60.70;;;;;;5102328;28;20088;-39
2023/10/16 14:24:43;;;;;;;0.60;0.40;;;19.80;60.50;;;;;;5102475;28;20074;-39
2023/10/16 14:27:12;;;;;;;0.52;0.40;;;19.80;60.20;;;;;;5101571;28;20038;-39
2023/10/16 14:29:44;;;;;;;0.80;0.50;;;19.80;60.10;;;;;;5103036;28;20110;-39
2023/10/16 14:32:11;;;;;;;0.50;0.40;;;19.80;59.80;;;;;;5101325;28;20044;-38
2023/10/16 14:34:37;;;;;;;0.55;0.40;;;19.80;60.40;;;;;;5085093;28;20028;-40
2023/10/16 14:37:05;;;;;;;0.28;0.20;;;19.90;60.70;;;;;;5091742;28;20036;-40
2023/10/16 14:39:32;;;;;;;0.30;0.30;;;19.90;60.50;;;;;;5094233;28;20066;-39
2023/10/16 14:42:05;;;;;;;0.67;0.40;;;19.90;60.40;;;;;;5094961;28;20040;-40
2023/10/16 14:44:31;;;;;;;0.50;0.40;;;19.90;60.30;;;;;;5102490;28;20028;-39
2023/10/16 14:46:57;;;;;;;1.27;0.47;;;19.90;60.00;;;;;;5095696;28;20477;-40
2023/10/16 14:49:26;;;;;;;0.40;0.40;;;19.80;60.00;;;;;;5098642;28;20092;-40
2023/10/16 14:51:53;;;;;;;0.55;0.50;;;19.80;59.80;;;;;;5096295;28;20062;-39
2023/10/16 14:54:21;;;;;;;0.50;0.30;;;19.90;60.30;;;;;;5099880;28;20035;-39
2023/10/16 14:56:49;;;;;;;0.50;0.40;;;19.90;60.20;;;;;;5095311;28;20024;-39
2023/10/16 14:59:26;;;;;;;0.40;0.40;;;19.90;60.30;;;;;;5101252;28;20044;-39
2023/10/16 15:01:53;;;;;;;1.60;0.30;;;19.90;60.10;;;;;;5101008;28;20024;-39
2023/10/16 15:04:20;;;;;;;0.52;0.30;;;19.90;59.90;;;;;;5085708;28;20036;-39
2023/10/16 15:06:47;;;;;;;0.52;0.40;;;19.90;59.80;;;;;;5096007;28;20020;-39